Airfield :
LOGIN :

Register | Disclaimer

   EN    FR    IT 

 










Legend :    VFR   Marginal VFR   IFR   Intensive IFR   Very Intensive IFR
Visi :
Ceiling :
>= 8 km
>= 3000ft
5 to 8 km
1000 to 3000 ft
1500m to 5 km
500 to 1000 ft
800 to 1500m
200 to 500 ft
< 800m
< 200 ft
Symbols :   Thunderstorms  Fog  Heavy snow  Heavy precipitations  Wind > 20 kt
SIGMETs :     Misc.  Thunderstorms  Icing  Turbulence  Mountain Waves  Volcanic Ashes






- Airport Elevation : 204 ft
- IATA code : AGF


LFBA - Agen

CURRENT METAR :
  • 260030Z AUTO 22007KT 180V260 9999 -RA FEW047/// BKN060/// OVC070/// ///CB 11/10 Q1009

EXPIRED METARs :
  • 260000Z AUTO 28005KT 230V330 9999 -RADZ FEW027/// SCT043/// BKN050/// ///TCU 11/10 Q1010
  • 252330Z AUTO 23006KT 9999 -RA ///TCU 11/10 Q1009
  • 252300Z AUTO 22008KT 190V250 9999 -RA NSC 11/10 Q1009
  • 252230Z AUTO 24009KT 200V260 CAVOK 11/10 Q1009
  • 252200Z AUTO 24006KT 200V280 9999 -RA FEW040/// SCT066/// BKN086/// ///TCU 11/10 Q1009

TAF AMD TAF LFBA
Valid from the 25 at 18:00 until the 26 at 03:00 UTC


251818Z 2518/2603 30010G20KT 4000 RA SCT007 BKN030
BECMG 2519/2521 22008KT 9999 NSW
TEMPO 2521/2603 4000 SHRA BKN005 BKN020TCU



MET'MAP, your aeronautical weather chart ! - Copyright ORBIFLY December 2007 - Disclaimer

ORBIFLY MET'MAP TEAM :

Programming & Development : Alexandra Zaïnal
Concept & original design : Baudouin d'Aumeries
Assistance for programming : Marc-Olivier Méhu
Technical & hardware support : Manuel Goepfert

Contact : metmap@orbifly.com




SOURCES & CREDITS :

   NOAA